createdAt,value
2017-12-08T00:00:47.020Z,64
2017-12-08T00:02:51.588Z,63
2017-12-08T00:04:56.560Z,64
2017-12-08T00:07:01.020Z,64
2017-12-08T00:09:05.402Z,64
2017-12-08T00:11:09.732Z,64
2017-12-08T00:13:14.424Z,66
2017-12-08T00:15:19.100Z,64
2017-12-08T00:17:23.803Z,64
2017-12-08T00:19:28.888Z,63
2017-12-08T00:21:34.168Z,64
2017-12-08T00:23:38.801Z,66
2017-12-08T00:25:43.624Z,64
2017-12-08T00:27:48.148Z,64
2017-12-08T00:29:52.741Z,64
2017-12-08T00:31:57.224Z,64
2017-12-08T00:34:01.903Z,63
2017-12-08T00:36:06.327Z,64
2017-12-08T00:38:10.864Z,63
2017-12-08T00:40:15.457Z,64
2017-12-08T00:42:19.844Z,64
2017-12-08T00:44:24.363Z,64
2017-12-08T00:46:29.225Z,63
2017-12-08T00:48:34.041Z,65
2017-12-08T00:50:38.744Z,65
2017-12-08T00:52:43.304Z,64
2017-12-08T00:54:47.676Z,64
2017-12-08T00:56:52.109Z,65
2017-12-08T00:58:56.717Z,63
2017-12-08T01:01:01.340Z,64
2017-12-08T01:03:05.785Z,64
2017-12-08T01:05:10.158Z,65
2017-12-08T01:07:14.858Z,64
2017-12-08T01:09:19.237Z,65
2017-12-08T01:11:23.884Z,64
2017-12-08T01:13:28.742Z,62
2017-12-08T01:15:33.244Z,63
2017-12-08T01:17:37.804Z,62
2017-12-08T01:19:42.461Z,64
2017-12-08T01:21:47.419Z,64
2017-12-08T01:23:51.923Z,62
2017-12-08T01:25:56.619Z,63
2017-12-08T01:28:01.324Z,64
2017-12-08T01:30:05.682Z,63
2017-12-08T01:32:10.124Z,63
2017-12-08T01:34:14.806Z,64
2017-12-08T01:36:20.445Z,63
2017-12-08T01:38:25.020Z,63
2017-12-08T01:40:29.770Z,63
2017-12-08T01:42:35.164Z,63
2017-12-08T01:44:40.842Z,63
2017-12-08T01:46:46.282Z,63
2017-12-08T01:48:51.165Z,63
2017-12-08T01:50:55.764Z,63
2017-12-08T01:53:00.365Z,63
2017-12-08T01:55:07.088Z,65
2017-12-08T01:57:11.804Z,63
2017-12-08T01:59:16.420Z,64
2017-12-08T02:01:21.109Z,64
2017-12-08T02:03:25.796Z,63
2017-12-08T02:05:30.446Z,61
2017-12-08T02:07:35.443Z,64
2017-12-08T02:09:39.977Z,63
2017-12-08T02:11:44.428Z,63
2017-12-08T02:13:49.324Z,63
2017-12-08T02:15:53.921Z,62
2017-12-08T02:17:58.321Z,62
2017-12-08T02:20:02.899Z,61
2017-12-08T02:22:07.201Z,64
2017-12-08T02:24:11.791Z,62
2017-12-08T02:26:16.585Z,62
2017-12-08T02:28:21.402Z,64
2017-12-08T02:30:27.127Z,64
2017-12-08T02:32:31.822Z,61
2017-12-08T02:34:36.157Z,62
2017-12-08T02:36:40.901Z,63
2017-12-08T02:38:45.424Z,62
2017-12-08T02:40:50.002Z,62
2017-12-08T02:42:54.760Z,62
2017-12-08T02:45:01.159Z,64
2017-12-08T02:47:05.783Z,62
2017-12-08T02:49:10.707Z,61
2017-12-08T02:51:15.684Z,63
2017-12-08T02:53:20.100Z,61
2017-12-08T02:55:24.600Z,62
2017-12-08T02:57:29.261Z,64
2017-12-08T02:59:33.764Z,61
2017-12-08T03:01:38.261Z,64
2017-12-08T03:03:43.328Z,61
2017-12-08T03:05:47.989Z,61
2017-12-08T03:07:52.538Z,61
2017-12-08T03:09:57.200Z,64
2017-12-08T03:12:01.805Z,62
2017-12-08T03:14:06.220Z,61
2017-12-08T03:16:10.741Z,61
2017-12-08T03:18:15.502Z,62
2017-12-08T03:20:19.781Z,63
2017-12-08T03:22:24.458Z,61
2017-12-08T03:24:29.199Z,61
2017-12-08T03:26:33.467Z,62
2017-12-08T03:28:37.862Z,61
2017-12-08T03:30:42.544Z,61
2017-12-08T03:32:47.723Z,64
2017-12-08T03:34:52.419Z,61
2017-12-08T03:36:56.982Z,61
2017-12-08T03:39:01.441Z,63
2017-12-08T03:41:05.724Z,61
2017-12-08T03:43:09.998Z,61
2017-12-08T03:45:14.619Z,61
2017-12-08T03:47:19.579Z,61
2017-12-08T03:49:27.915Z,64
2017-12-08T03:51:43.091Z,63
2017-12-08T03:53:48.317Z,61
2017-12-08T03:55:53.059Z,61
2017-12-08T03:57:57.766Z,61
2017-12-08T04:00:02.584Z,61
2017-12-08T04:02:07.056Z,61
2017-12-08T04:04:11.688Z,61
2017-12-08T04:06:16.583Z,62
2017-12-08T04:08:21.547Z,61
2017-12-08T04:10:26.482Z,61
2017-12-08T04:12:31.018Z,61
2017-12-08T04:14:35.679Z,61
2017-12-08T04:16:40.080Z,61
2017-12-08T04:18:45.901Z,61
2017-12-08T04:20:50.784Z,61
2017-12-08T04:22:55.358Z,60
2017-12-08T04:24:59.798Z,61
2017-12-08T04:27:04.322Z,61
2017-12-08T04:29:08.825Z,61
2017-12-08T04:31:13.742Z,62
2017-12-08T04:33:18.288Z,61
2017-12-08T04:35:23.145Z,62
2017-12-08T04:37:27.681Z,61
2017-12-08T04:39:32.007Z,61
2017-12-08T04:41:37.994Z,62
2017-12-08T04:43:43.287Z,61
2017-12-08T04:45:48.540Z,61
2017-12-08T04:47:55.286Z,63
2017-12-08T04:49:59.948Z,62
2017-12-08T04:52:04.898Z,61
2017-12-08T04:54:10.780Z,60
2017-12-08T04:56:16.066Z,61
2017-12-08T04:58:21.102Z,60
2017-12-08T05:00:31.779Z,60
2017-12-08T05:02:41.109Z,63
2017-12-08T05:04:45.793Z,61
2017-12-08T05:06:52.149Z,63
2017-12-08T05:08:58.287Z,61
2017-12-08T05:11:11.853Z,60
2017-12-08T05:13:17.566Z,62
2017-12-08T05:15:22.204Z,59
2017-12-08T05:17:27.160Z,62
2017-12-08T05:19:32.707Z,61
2017-12-08T05:21:37.823Z,59
2017-12-08T05:23:42.500Z,62
2017-12-08T05:25:48.044Z,61
2017-12-08T05:27:54.337Z,61
2017-12-08T05:30:00.039Z,60
2017-12-08T05:32:05.239Z,60
2017-12-08T05:34:09.910Z,59
2017-12-08T05:36:14.417Z,59
2017-12-08T05:38:19.498Z,61
2017-12-08T05:40:24.183Z,60
2017-12-08T05:42:29.340Z,61
2017-12-08T05:44:35.883Z,60
2017-12-08T05:46:42.886Z,60
2017-12-08T05:48:48.988Z,62
2017-12-08T05:50:55.765Z,60
2017-12-08T05:53:02.651Z,62
2017-12-08T05:55:08.677Z,62
2017-12-08T05:57:14.880Z,59
2017-12-08T05:59:26.338Z,62
2017-12-08T06:01:32.302Z,60
2017-12-08T06:03:39.143Z,60
2017-12-08T06:05:46.060Z,61
2017-12-08T06:07:52.807Z,60
2017-12-08T06:09:58.783Z,60
2017-12-08T06:12:03.522Z,59
2017-12-08T06:14:09.167Z,61
2017-12-08T06:16:17.406Z,61
2017-12-08T06:18:23.759Z,59
2017-12-08T06:20:31.565Z,60
2017-12-08T06:22:40.759Z,61
2017-12-08T06:24:48.403Z,61
2017-12-08T06:26:56.923Z,61
2017-12-08T06:29:04.706Z,59
2017-12-08T06:31:20.264Z,61
2017-12-08T06:33:27.460Z,60
2017-12-08T06:35:38.124Z,61
2017-12-08T06:40:09.697Z,61
2017-12-08T06:42:18.540Z,60
2017-12-08T06:44:25.641Z,60
2017-12-08T06:46:32.359Z,59
2017-12-08T06:48:38.361Z,59
2017-12-08T06:50:43.831Z,61
2017-12-08T06:52:49.363Z,59
2017-12-08T06:54:54.766Z,59
2017-12-08T06:57:00.678Z,59
2017-12-08T06:59:06.358Z,59
2017-12-08T07:01:12.809Z,61
2017-12-08T07:03:23.682Z,61
2017-12-08T07:05:30.444Z,61
2017-12-08T07:07:36.286Z,59
2017-12-08T07:09:42.381Z,61
2017-12-08T07:11:48.238Z,59
2017-12-08T07:13:53.085Z,59
2017-12-08T07:15:58.622Z,59
2017-12-08T07:18:05.826Z,59
2017-12-08T07:20:11.069Z,58
2017-12-08T07:22:15.924Z,59
2017-12-08T07:24:20.235Z,59
2017-12-08T07:26:26.921Z,61
2017-12-08T07:28:35.949Z,59
2017-12-08T07:30:41.377Z,58
2017-12-08T07:32:48.165Z,61
2017-12-08T07:34:53.647Z,61
2017-12-08T07:36:58.980Z,61
2017-12-08T07:39:09.110Z,59
2017-12-08T07:41:17.185Z,59
2017-12-08T07:43:22.532Z,61
2017-12-08T07:45:27.679Z,58
2017-12-08T07:47:32.204Z,59
2017-12-08T07:49:37.478Z,59
2017-12-08T07:51:43.638Z,59
2017-12-08T07:53:49.739Z,59
2017-12-08T07:55:56.003Z,59
2017-12-08T07:58:01.487Z,57
2017-12-08T08:00:09.041Z,58
2017-12-08T08:02:14.142Z,59
2017-12-08T08:04:18.916Z,59
2017-12-08T08:06:25.109Z,59
2017-12-08T08:08:31.026Z,59
2017-12-08T08:10:37.217Z,59
2017-12-08T08:12:50.846Z,59
2017-12-08T08:14:59.855Z,59
2017-12-08T08:17:05.284Z,57
2017-12-08T08:19:10.779Z,59
2017-12-08T08:21:17.465Z,57
2017-12-08T08:23:24.676Z,58
2017-12-08T08:25:32.206Z,59
2017-12-08T08:27:38.558Z,59
2017-12-08T08:29:44.725Z,60
2017-12-08T08:31:52.840Z,60
2017-12-08T08:34:00.523Z,58
2017-12-08T08:36:13.351Z,59
2017-12-08T08:38:26.918Z,60
2017-12-08T08:40:35.321Z,59
2017-12-08T08:42:44.475Z,60
2017-12-08T08:44:53.223Z,59
2017-12-08T08:47:05.246Z,60
2017-12-08T08:49:10.844Z,58
2017-12-08T08:51:21.544Z,60
2017-12-08T08:53:32.520Z,60
2017-12-08T08:55:39.960Z,58
2017-12-08T08:57:48.361Z,60
2017-12-08T08:59:55.061Z,59
2017-12-08T09:02:01.122Z,59
2017-12-08T09:04:07.441Z,59
2017-12-08T09:06:17.737Z,60
2017-12-08T09:08:25.027Z,58
2017-12-08T09:10:33.081Z,58
2017-12-08T09:12:38.686Z,58
2017-12-08T09:14:49.542Z,58
2017-12-08T09:17:01.119Z,57
2017-12-08T09:19:09.688Z,60
2017-12-08T09:21:17.203Z,57
2017-12-08T09:23:24.782Z,58
2017-12-08T09:25:32.523Z,59
2017-12-08T09:27:39.017Z,57
2017-12-08T09:29:46.168Z,58
2017-12-08T09:31:52.423Z,59
2017-12-08T09:33:59.345Z,57
2017-12-08T09:36:05.822Z,59
2017-12-08T09:38:11.828Z,59
2017-12-08T09:40:21.310Z,60
2017-12-08T09:42:30.764Z,59
2017-12-08T09:44:39.061Z,57
2017-12-08T09:46:43.730Z,57
2017-12-08T09:48:49.320Z,57
2017-12-08T09:53:06.039Z,58
2017-12-08T09:55:11.502Z,59
2017-12-08T09:57:17.267Z,58
2017-12-08T09:59:35.949Z,59
2017-12-08T10:01:49.643Z,59
2017-12-08T10:04:00.144Z,58
2017-12-08T10:06:09.799Z,58
2017-12-08T10:08:18.844Z,57
2017-12-08T10:10:27.423Z,57
2017-12-08T10:12:44.410Z,59
2017-12-08T10:14:50.541Z,59
2017-12-08T10:17:02.521Z,58
2017-12-08T10:19:11.580Z,59
2017-12-08T10:21:18.178Z,57
2017-12-08T10:23:23.722Z,57
2017-12-08T10:25:31.879Z,59
2017-12-08T10:27:38.801Z,57
2017-12-08T10:29:45.003Z,59
2017-12-08T10:31:50.968Z,59
2017-12-08T10:33:56.330Z,59
2017-12-08T10:36:03.820Z,57
2017-12-08T10:38:15.514Z,57
2017-12-08T10:40:22.352Z,57
2017-12-08T10:42:28.688Z,57
2017-12-08T10:44:34.147Z,57
2017-12-08T10:46:40.522Z,58
2017-12-08T10:48:46.042Z,57
2017-12-08T10:50:51.826Z,59
2017-12-08T10:52:56.923Z,57
2017-12-08T10:55:01.454Z,57
2017-12-08T10:57:07.659Z,58
2017-12-08T10:59:12.705Z,59
2017-12-08T11:01:20.406Z,58
2017-12-08T11:05:56.344Z,57
2017-12-08T11:08:03.723Z,57
2017-12-08T11:10:09.024Z,59
2017-12-08T11:12:15.366Z,57
2017-12-08T11:14:25.542Z,57
2017-12-08T11:16:31.077Z,57
2017-12-08T11:18:36.860Z,57
2017-12-08T11:20:42.503Z,56
2017-12-08T11:22:47.446Z,57
2017-12-08T11:24:55.038Z,57
2017-12-08T11:27:02.267Z,55
2017-12-08T11:29:08.798Z,57
2017-12-08T11:31:17.220Z,58
2017-12-08T11:33:26.663Z,58
2017-12-08T11:37:45.603Z,58
2017-12-08T11:39:50.385Z,58
2017-12-08T11:41:55.581Z,58
2017-12-08T11:44:01.264Z,58
2017-12-08T11:46:07.261Z,57
2017-12-08T11:48:13.547Z,58
2017-12-08T11:50:18.779Z,57
2017-12-08T11:52:23.918Z,57
2017-12-08T11:54:34.244Z,58
2017-12-08T11:56:40.818Z,56
2017-12-08T11:58:45.719Z,55
2017-12-08T12:00:51.062Z,56
2017-12-08T12:02:58.385Z,57
2017-12-08T12:05:24.304Z,57
2017-12-08T12:07:34.847Z,55
2017-12-08T12:09:42.776Z,56
2017-12-08T12:11:49.668Z,57
2017-12-08T12:13:57.437Z,56
2017-12-08T12:16:04.792Z,58
2017-12-08T12:18:16.121Z,55
2017-12-08T12:20:25.908Z,58
2017-12-08T12:22:34.556Z,58
2017-12-08T12:24:42.861Z,56
2017-12-08T12:26:49.555Z,55
2017-12-08T12:29:04.058Z,57
2017-12-08T12:31:10.266Z,56
2017-12-08T12:33:16.360Z,56
2017-12-08T12:35:23.461Z,55
2017-12-08T12:37:30.284Z,57
2017-12-08T12:39:35.623Z,57
2017-12-08T12:41:41.400Z,55
2017-12-08T12:43:49.004Z,56
2017-12-08T12:47:55.221Z,57
2017-12-08T12:50:02.341Z,57
2017-12-08T12:52:07.423Z,57
2017-12-08T12:54:15.080Z,57
2017-12-08T12:56:25.542Z,55
2017-12-08T12:58:35.603Z,56
2017-12-08T13:00:47.260Z,56
2017-12-08T13:02:54.178Z,55
2017-12-08T13:05:00.284Z,57
2017-12-08T13:07:07.620Z,56
2017-12-08T13:09:13.842Z,55
2017-12-08T13:11:19.721Z,57
2017-12-08T13:13:24.641Z,55
2017-12-08T13:15:30.556Z,56
2017-12-08T13:17:41.817Z,57
2017-12-08T13:19:50.906Z,55
2017-12-08T13:21:56.779Z,54
2017-12-08T13:24:02.545Z,55
2017-12-08T13:26:14.573Z,55
2017-12-08T13:28:34.784Z,57
2017-12-08T13:30:53.940Z,55
2017-12-08T13:33:05.486Z,55
2017-12-08T13:35:30.263Z,57
2017-12-08T13:37:42.524Z,57
2017-12-08T13:39:50.182Z,55
2017-12-08T13:41:57.885Z,57
2017-12-08T13:44:05.556Z,57
2017-12-08T13:46:12.537Z,54
2017-12-08T13:48:20.580Z,54
2017-12-08T13:50:28.825Z,57
2017-12-08T13:52:37.304Z,57
2017-12-08T13:54:44.484Z,55
2017-12-08T13:56:55.444Z,57
2017-12-08T13:59:05.235Z,57
2017-12-08T14:01:25.133Z,55
2017-12-08T14:03:33.846Z,57
2017-12-08T14:05:43.941Z,57
2017-12-08T14:07:50.078Z,55
2017-12-08T14:09:56.859Z,54
2017-12-08T14:12:07.302Z,55
2017-12-08T14:14:15.624Z,56
2017-12-08T14:16:21.819Z,56
2017-12-08T14:18:30.024Z,55
2017-12-08T14:20:45.660Z,57
2017-12-08T14:22:57.805Z,56
2017-12-08T14:25:04.102Z,55
2017-12-08T14:27:46.041Z,57
2017-12-08T14:29:54.218Z,56
2017-12-08T14:32:05.860Z,55
2017-12-08T14:34:16.862Z,56
2017-12-08T14:36:24.300Z,55
2017-12-08T14:38:36.320Z,56
2017-12-08T14:40:45.001Z,56
2017-12-08T14:42:52.344Z,56
2017-12-08T14:44:57.982Z,56
2017-12-08T14:47:04.022Z,56
2017-12-08T14:49:11.543Z,55
2017-12-08T14:51:18.962Z,56
2017-12-08T14:53:29.654Z,53
2017-12-08T14:55:37.839Z,54
2017-12-08T14:57:45.682Z,54
2017-12-08T14:59:53.778Z,54
2017-12-08T15:01:59.817Z,54
2017-12-08T15:04:10.676Z,55
2017-12-08T15:08:51.464Z,55
2017-12-08T15:11:06.380Z,54
2017-12-08T15:13:14.222Z,54
2017-12-08T15:15:28.695Z,54
2017-12-08T15:17:47.120Z,55
2017-12-08T15:19:53.070Z,55
2017-12-08T15:22:00.280Z,54
2017-12-08T15:24:08.102Z,55
2017-12-08T15:26:44.666Z,54
2017-12-08T15:28:53.248Z,55
2017-12-08T15:31:05.506Z,55
2017-12-08T15:35:34.526Z,55
2017-12-08T15:37:46.628Z,53
2017-12-08T15:39:52.726Z,54
2017-12-08T15:41:59.625Z,53
2017-12-08T15:44:05.228Z,55
2017-12-08T15:46:11.303Z,53
2017-12-08T15:48:20.606Z,55
2017-12-08T15:50:29.204Z,55
2017-12-08T15:52:37.178Z,55
2017-12-08T15:54:44.302Z,54
2017-12-08T15:56:49.560Z,54
2017-12-08T15:58:55.445Z,53
2017-12-08T16:01:02.704Z,53
2017-12-08T16:03:10.683Z,53
2017-12-08T16:05:15.898Z,53
2017-12-08T16:07:21.141Z,52
2017-12-08T16:09:26.446Z,55
2017-12-08T16:11:33.043Z,53
2017-12-08T16:13:44.116Z,55
2017-12-08T16:15:49.778Z,53
2017-12-08T16:17:55.281Z,53
2017-12-08T16:20:00.263Z,53
2017-12-08T16:22:06.169Z,53
2017-12-08T16:24:11.968Z,53
2017-12-08T16:26:23.461Z,53
2017-12-08T16:28:31.143Z,55
2017-12-08T16:30:43.018Z,53
2017-12-08T16:32:52.663Z,55
2017-12-08T16:35:21.940Z,55
2017-12-08T16:37:48.287Z,53
2017-12-08T16:40:14.198Z,53
2017-12-08T16:42:24.395Z,52
2017-12-08T16:47:00.987Z,53
2017-12-08T16:49:07.097Z,53
2017-12-08T16:51:14.048Z,54
2017-12-08T16:53:19.602Z,54
2017-12-08T16:55:25.984Z,53
2017-12-08T16:57:31.647Z,53
2017-12-08T16:59:37.121Z,54
2017-12-08T17:01:42.716Z,52
2017-12-08T17:03:48.892Z,53
2017-12-08T17:05:55.948Z,54
2017-12-08T17:08:00.245Z,53
2017-12-08T17:10:05.403Z,52
2017-12-08T17:12:12.460Z,52
2017-12-08T17:14:17.807Z,52
2017-12-08T17:16:24.348Z,54
2017-12-08T17:18:29.744Z,53
2017-12-08T17:20:35.213Z,51
2017-12-08T17:22:40.766Z,52
2017-12-08T17:24:47.013Z,53
2017-12-08T17:26:54.521Z,54
2017-12-08T17:28:59.984Z,53
2017-12-08T17:31:09.402Z,52
2017-12-08T17:33:15.622Z,53
2017-12-08T17:35:22.721Z,53
2017-12-08T17:37:28.903Z,53
2017-12-08T17:39:37.403Z,50
2017-12-08T17:41:45.185Z,53
2017-12-08T17:43:53.442Z,52
2017-12-08T17:46:01.424Z,53
2017-12-08T17:48:12.176Z,53
2017-12-08T17:50:18.726Z,52
2017-12-08T17:52:26.205Z,53
2017-12-08T17:54:35.807Z,53
2017-12-08T17:56:44.985Z,53
2017-12-08T17:58:52.325Z,51
2017-12-08T18:02:57.155Z,51
2017-12-08T18:05:03.562Z,52
2017-12-08T18:07:13.800Z,53
2017-12-08T18:09:23.006Z,50
2017-12-08T18:11:30.855Z,51
2017-12-08T18:13:37.801Z,53
2017-12-08T18:15:44.898Z,50
2017-12-08T18:17:59.512Z,52
2017-12-08T18:20:13.320Z,51
2017-12-08T18:22:20.185Z,51
2017-12-08T18:24:26.134Z,50
2017-12-08T18:26:32.207Z,51
2017-12-08T18:28:37.558Z,53
2017-12-08T18:30:45.377Z,53
2017-12-08T18:32:52.019Z,53
2017-12-08T18:34:58.145Z,53
2017-12-08T18:37:12.728Z,51
2017-12-08T18:39:20.500Z,53
2017-12-08T18:41:29.241Z,53
2017-12-08T18:43:35.345Z,50
2017-12-08T18:45:42.784Z,51
2017-12-08T18:47:49.443Z,51
2017-12-08T18:49:56.766Z,51
2017-12-08T18:52:04.221Z,52
2017-12-08T18:54:11.377Z,52
2017-12-08T18:56:16.804Z,50
2017-12-08T18:58:22.239Z,50
2017-12-08T19:00:27.641Z,50
2017-12-08T19:02:33.097Z,51
2017-12-08T19:04:40.841Z,52
2017-12-08T19:06:50.032Z,52
2017-12-08T19:08:55.886Z,52
2017-12-08T19:11:02.083Z,50
2017-12-08T19:13:08.145Z,52
2017-12-08T19:15:16.585Z,50
2017-12-08T19:17:34.355Z,52
2017-12-08T19:19:42.540Z,49
2017-12-08T19:21:50.027Z,52
2017-12-08T19:24:08.900Z,49
2017-12-08T19:26:24.067Z,52
2017-12-08T19:28:32.424Z,52
2017-12-08T19:30:51.616Z,52
2017-12-08T19:33:04.139Z,52
2017-12-08T19:35:09.940Z,52
2017-12-08T19:37:15.525Z,50
2017-12-08T19:39:21.561Z,52
2017-12-08T19:41:35.860Z,52
2017-12-08T19:43:46.059Z,49
2017-12-08T19:45:53.732Z,50
2017-12-08T19:48:03.659Z,50
2017-12-08T19:50:14.859Z,50
2017-12-08T19:52:43.912Z,52
2017-12-08T19:55:00.684Z,50
2017-12-08T19:57:06.409Z,51
2017-12-08T19:59:12.902Z,50
2017-12-08T20:01:19.817Z,50
2017-12-08T20:03:28.406Z,50
2017-12-08T20:05:36.004Z,52
2017-12-08T20:07:41.966Z,51
2017-12-08T20:09:47.824Z,51
2017-12-08T20:11:53.921Z,50
2017-12-08T20:14:00.761Z,49
2017-12-08T20:16:07.403Z,51
2017-12-08T20:18:12.913Z,50
2017-12-08T20:20:20.981Z,50
2017-12-08T20:22:28.578Z,50
2017-12-08T20:24:35.905Z,49
2017-12-08T20:26:46.300Z,51
2017-12-08T20:28:53.162Z,51
2017-12-08T20:30:59.745Z,49
2017-12-08T20:33:05.917Z,50
2017-12-08T20:35:13.440Z,49
2017-12-08T20:37:21.007Z,49
2017-12-08T20:39:31.788Z,48
2017-12-08T20:41:37.685Z,49
2017-12-08T20:43:47.471Z,49
2017-12-08T20:45:57.379Z,50
2017-12-08T20:48:04.986Z,50
2017-12-08T20:50:12.791Z,48
2017-12-08T20:52:20.286Z,50
2017-12-08T20:54:33.565Z,50
2017-12-08T20:56:40.824Z,48
2017-12-08T20:58:47.741Z,49
2017-12-08T21:00:54.371Z,48
2017-12-08T21:03:02.445Z,49
2017-12-08T21:05:08.906Z,49
2017-12-08T21:07:15.603Z,48
2017-12-08T21:09:26.375Z,50
2017-12-08T21:11:31.820Z,48
2017-12-08T21:13:39.158Z,50
2017-12-08T21:15:46.661Z,48
2017-12-08T21:17:55.385Z,50
2017-12-08T21:20:03.601Z,49
2017-12-08T21:22:10.140Z,48
2017-12-08T21:24:16.706Z,50
2017-12-08T21:26:24.021Z,50
2017-12-08T21:28:33.939Z,48
2017-12-08T21:30:39.560Z,50
2017-12-08T21:32:46.239Z,50
2017-12-08T21:34:54.191Z,48
2017-12-08T21:37:04.976Z,49
2017-12-08T21:39:11.318Z,50
2017-12-08T21:41:17.021Z,47
2017-12-08T21:43:26.143Z,48
2017-12-08T21:45:33.561Z,48
2017-12-08T21:47:40.444Z,48
2017-12-08T21:49:46.703Z,48
2017-12-08T21:51:54.048Z,48
2017-12-08T21:54:00.521Z,48
2017-12-08T21:56:08.538Z,50
2017-12-08T21:58:14.042Z,50
2017-12-08T22:00:20.105Z,50
2017-12-08T22:02:25.840Z,50
2017-12-08T22:04:30.724Z,48
2017-12-08T22:06:36.584Z,48
2017-12-08T22:08:45.121Z,47
2017-12-08T22:10:51.443Z,48
2017-12-08T22:12:57.296Z,49
2017-12-08T22:15:03.658Z,48
2017-12-08T22:17:10.697Z,48
2017-12-08T22:19:16.362Z,49
2017-12-08T22:21:22.227Z,46
2017-12-08T22:23:31.465Z,48
2017-12-08T22:25:37.520Z,48
2017-12-08T22:27:49.764Z,47
2017-12-08T22:29:56.205Z,48
2017-12-08T22:32:05.846Z,47
2017-12-08T22:34:14.945Z,50
2017-12-08T22:36:22.144Z,48
2017-12-08T22:38:29.162Z,50
2017-12-08T22:40:34.824Z,49
2017-12-08T22:42:41.961Z,49
2017-12-08T22:44:50.001Z,47
2017-12-08T22:46:55.589Z,47
2017-12-08T22:49:04.269Z,47
2017-12-08T22:51:10.677Z,48
2017-12-08T22:53:17.392Z,48
2017-12-08T22:55:25.961Z,46
2017-12-08T22:57:33.544Z,47
2017-12-08T22:59:46.958Z,48
2017-12-08T23:01:54.322Z,49
2017-12-08T23:04:01.245Z,49
2017-12-08T23:06:07.239Z,46
2017-12-08T23:08:11.807Z,47
2017-12-08T23:10:17.647Z,47
2017-12-08T23:12:30.203Z,49
2017-12-08T23:14:35.921Z,47
2017-12-08T23:16:45.203Z,49
2017-12-08T23:18:55.639Z,48
2017-12-08T23:21:01.869Z,47
2017-12-08T23:23:07.187Z,46
2017-12-08T23:25:14.185Z,48
2017-12-08T23:27:19.881Z,46
2017-12-08T23:29:26.268Z,48
2017-12-08T23:31:32.505Z,46
2017-12-08T23:33:41.097Z,48
2017-12-08T23:35:46.540Z,46
2017-12-08T23:37:51.743Z,46
2017-12-08T23:39:58.424Z,48
2017-12-08T23:42:04.342Z,47
2017-12-08T23:44:11.085Z,46
2017-12-08T23:46:17.028Z,48
2017-12-08T23:48:22.460Z,48
2017-12-08T23:50:27.076Z,46
2017-12-08T23:52:32.744Z,46
2017-12-08T23:54:46.634Z,48
2017-12-08T23:56:56.247Z,48
2017-12-08T23:59:01.934Z,46
